< < Back
Terminal Aerodrome Forecast


Current Version              Previous Versions:   1  2  3  4  5  6  7  8  9  

Terminal Aerodrome Forecast

859
FTUS44 KBMX 251700
TAFANB
TAF
KANB 251735Z 2518/2618 01007KT P6SM SCT150 BKN250
     FM260300 33006KT P6SM SCT035 OVC050
     FM260600 32005KT P6SM VCSH SCT020 OVC040
      TEMPO 2606/2610 SCT008 BKN012
     FM261000 30006KT P6SM SCT015 SCT250=



Latest METAR

288
SAUS70 KWBC 261400 RRK
MTRANB
METAR KANB 261353Z AUTO 22008KT 10SM CLR 04/M02 A3016 RMK AO2 SLP219
T00391017


USA.gov is the U.S. government's official web portal to all federal, state and local government web resources and services.